createdAt,value
2023-02-26T00:02:14.894Z,1.70
2023-02-26T00:04:44.687Z,1.70
2023-02-26T00:07:13.249Z,1.80
2023-02-26T00:09:41.780Z,1.70
2023-02-26T00:12:13.139Z,1.80
2023-02-26T00:14:42.191Z,1.80
2023-02-26T00:17:43.800Z,1.70
2023-02-26T00:20:14.253Z,1.80
2023-02-26T00:22:43.958Z,1.80
2023-02-26T00:25:12.930Z,1.80
2023-02-26T00:27:45.342Z,1.80
2023-02-26T00:30:14.551Z,1.70
2023-02-26T00:32:45.303Z,1.70
2023-02-26T00:35:16.709Z,1.70
2023-02-26T00:38:01.757Z,1.80
2023-02-26T00:40:37.692Z,1.70
2023-02-26T00:43:07.555Z,1.70
2023-02-26T00:45:36.871Z,1.60
2023-02-26T00:48:24.484Z,1.60
2023-02-26T00:51:00.218Z,1.60
2023-02-26T00:53:35.521Z,1.60
2023-02-26T00:56:04.012Z,1.60
2023-02-26T00:58:32.510Z,1.50
2023-02-26T01:01:01.740Z,1.60
2023-02-26T01:03:33.377Z,1.60
2023-02-26T01:06:02.215Z,1.50
2023-02-26T01:08:35.275Z,1.50
2023-02-26T01:11:04.179Z,1.50
2023-02-26T01:13:33.080Z,1.50
2023-02-26T01:16:06.900Z,1.40
2023-02-26T01:18:43.411Z,1.40
2023-02-26T01:21:15.338Z,1.40
2023-02-26T01:23:48.986Z,1.50
2023-02-26T01:26:21.582Z,1.40
2023-02-26T01:28:50.567Z,1.40
2023-02-26T01:31:35.808Z,1.40
2023-02-26T01:34:11.104Z,1.30
2023-02-26T01:36:45.536Z,1.30
2023-02-26T01:39:21.311Z,1.40
2023-02-26T01:41:52.619Z,1.40
2023-02-26T01:44:27.686Z,1.40
2023-02-26T01:47:22.089Z,1.30
2023-02-26T01:49:52.773Z,1.30
2023-02-26T01:53:06.222Z,1.20
2023-02-26T01:55:34.744Z,1.10
2023-02-26T01:58:06.000Z,1.00
2023-02-26T02:00:34.755Z,1.00
2023-02-26T02:03:03.707Z,0.90
2023-02-26T02:05:37.027Z,0.90
2023-02-26T02:08:05.841Z,0.80
2023-02-26T02:10:34.773Z,0.80
2023-02-26T02:13:11.388Z,0.70
2023-02-26T02:15:46.782Z,0.70
2023-02-26T02:18:23.369Z,0.70
2023-02-26T02:21:14.976Z,0.70
2023-02-26T02:23:49.036Z,0.60
2023-02-26T02:26:43.367Z,0.50
2023-02-26T02:29:55.947Z,0.50
2023-02-26T02:32:31.010Z,0.60
2023-02-26T02:35:08.109Z,0.60
2023-02-26T02:37:42.091Z,0.60
2023-02-26T02:40:14.786Z,0.60
2023-02-26T02:42:45.420Z,0.60
2023-02-26T02:45:18.715Z,0.50
2023-02-26T02:47:51.558Z,0.50
2023-02-26T02:50:25.926Z,0.60
2023-02-26T02:52:58.135Z,0.50
2023-02-26T02:55:30.090Z,0.50
2023-02-26T02:58:03.092Z,0.50
2023-02-26T03:00:35.572Z,0.40
2023-02-26T03:03:13.273Z,0.40
2023-02-26T03:05:41.851Z,0.40
2023-02-26T03:08:14.125Z,0.40
2023-02-26T03:10:43.724Z,0.30
2023-02-26T03:13:18.746Z,0.30
2023-02-26T03:16:01.661Z,0.30
2023-02-26T03:18:37.840Z,0.40
2023-02-26T03:21:13.491Z,0.40
2023-02-26T03:23:47.905Z,0.40
2023-02-26T03:26:25.554Z,0.40
2023-02-26T03:28:59.245Z,0.40
2023-02-26T03:31:33.214Z,0.40
2023-02-26T03:34:07.164Z,0.40
2023-02-26T03:36:43.671Z,0.40
2023-02-26T03:39:17.876Z,0.50
2023-02-26T03:41:50.636Z,0.50
2023-02-26T03:44:24.697Z,0.50
2023-02-26T03:46:55.252Z,0.50
2023-02-26T03:49:36.706Z,0.50
2023-02-26T03:52:06.384Z,0.50
2023-02-26T03:54:38.739Z,0.40
2023-02-26T03:57:07.545Z,0.30
2023-02-26T03:59:36.902Z,0.20
2023-02-26T04:02:07.481Z,0.20
2023-02-26T04:04:43.470Z,0.20
2023-02-26T04:07:13.608Z,0.20
2023-02-26T04:09:42.604Z,0.10
2023-02-26T04:12:11.355Z,0.10
2023-02-26T04:14:40.238Z,0.10
2023-02-26T04:17:08.932Z,0.10
2023-02-26T04:19:38.823Z,0.20
2023-02-26T04:22:07.898Z,0.20
2023-02-26T04:24:36.375Z,0.30
2023-02-26T04:27:05.135Z,0.40
2023-02-26T04:29:33.736Z,0.40
2023-02-26T04:32:02.689Z,0.40
2023-02-26T04:34:31.513Z,0.50
2023-02-26T04:37:01.680Z,0.50
2023-02-26T04:39:30.100Z,0.50
2023-02-26T04:41:58.540Z,0.60
2023-02-26T04:44:27.510Z,0.60
2023-02-26T04:46:56.883Z,0.60
2023-02-26T04:49:25.351Z,0.50
2023-02-26T04:51:53.890Z,0.40
2023-02-26T04:54:23.830Z,0.40
2023-02-26T04:56:52.240Z,0.30
2023-02-26T04:59:20.839Z,0.30
2023-02-26T05:01:49.435Z,0.20
2023-02-26T05:04:18.056Z,0.10
2023-02-26T05:06:46.892Z,0.10
2023-02-26T05:09:15.481Z,0.00
2023-02-26T05:11:45.442Z,0.10
2023-02-26T05:14:13.991Z,0.10
2023-02-26T05:16:42.552Z,0.10
2023-02-26T05:19:11.042Z,0.20
2023-02-26T05:21:39.574Z,0.30
2023-02-26T05:24:08.786Z,0.40
2023-02-26T05:26:37.495Z,0.40
2023-02-26T05:29:07.403Z,0.40
2023-02-26T05:31:36.046Z,0.50
2023-02-26T05:34:04.553Z,0.60
2023-02-26T05:36:33.034Z,0.70
2023-02-26T05:39:01.662Z,0.70
2023-02-26T05:41:30.102Z,0.70
2023-02-26T05:43:58.598Z,0.80
2023-02-26T05:46:28.822Z,0.80
2023-02-26T05:48:57.590Z,0.70
2023-02-26T05:51:26.305Z,0.70
2023-02-26T05:53:54.761Z,0.70
2023-02-26T05:56:23.514Z,0.70
2023-02-26T05:58:52.161Z,0.70
2023-02-26T06:01:20.609Z,0.60
2023-02-26T06:03:50.540Z,0.50
2023-02-26T06:06:19.109Z,0.40
2023-02-26T06:08:48.122Z,0.40
2023-02-26T06:11:16.590Z,0.30
2023-02-26T06:13:45.435Z,0.30
2023-02-26T06:16:14.201Z,0.30
2023-02-26T06:18:42.688Z,0.30
2023-02-26T06:21:12.640Z,0.20
2023-02-26T06:23:41.149Z,0.20
2023-02-26T06:26:09.909Z,0.10
2023-02-26T06:28:38.449Z,0.00
2023-02-26T06:31:06.957Z,0.10
2023-02-26T06:33:35.461Z,0.00
2023-02-26T06:36:04.146Z,0.00
2023-02-26T06:38:34.118Z,0.00
2023-02-26T06:41:02.771Z,0.00
2023-02-26T06:43:31.266Z,0.00
2023-02-26T06:46:00.300Z,0.00
2023-02-26T06:48:29.216Z,0.00
2023-02-26T06:50:57.753Z,0.10
2023-02-26T06:53:26.269Z,0.10
2023-02-26T06:55:56.159Z,0.10
2023-02-26T06:58:25.300Z,0.20
2023-02-26T07:00:54.083Z,0.20
2023-02-26T07:03:22.615Z,0.30
2023-02-26T07:05:51.206Z,0.30
2023-02-26T07:08:19.705Z,0.50
2023-02-26T07:10:49.669Z,0.60
2023-02-26T07:13:19.903Z,0.70
2023-02-26T07:15:48.867Z,0.80
2023-02-26T07:18:17.446Z,1.00
2023-02-26T07:20:46.078Z,1.20
2023-02-26T07:23:14.554Z,1.30
2023-02-26T07:25:43.053Z,1.40
2023-02-26T07:28:11.644Z,1.50
2023-02-26T07:30:43.061Z,1.60
2023-02-26T07:33:13.594Z,1.70
2023-02-26T07:35:42.420Z,1.90
2023-02-26T07:38:10.933Z,2.00
2023-02-26T07:40:39.459Z,2.10
2023-02-26T07:43:08.062Z,2.10
2023-02-26T07:45:36.609Z,2.10
2023-02-26T07:48:06.721Z,2.20
2023-02-26T07:50:35.189Z,2.20
2023-02-26T07:53:03.748Z,2.20
2023-02-26T07:55:32.289Z,2.30
2023-02-26T07:58:00.704Z,2.40
2023-02-26T08:00:29.333Z,2.70
2023-02-26T08:02:58.053Z,3.30
2023-02-26T08:05:30.047Z,4.20
2023-02-26T08:07:58.833Z,5.10
2023-02-26T08:10:27.291Z,5.80
2023-02-26T08:12:55.775Z,6.00
2023-02-26T08:15:24.689Z,5.80
2023-02-26T08:17:54.046Z,5.60
2023-02-26T08:20:22.518Z,5.20
2023-02-26T08:22:53.535Z,4.90
2023-02-26T08:25:22.151Z,4.60
2023-02-26T08:27:50.693Z,4.40
2023-02-26T08:30:19.491Z,4.30
2023-02-26T08:32:49.953Z,4.30
2023-02-26T08:35:18.591Z,4.40
2023-02-26T08:37:47.229Z,4.50
2023-02-26T08:40:18.256Z,4.70
2023-02-26T08:42:47.239Z,5.00
2023-02-26T08:45:15.759Z,5.40
2023-02-26T08:47:56.053Z,5.80
2023-02-26T08:50:25.912Z,6.10
2023-02-26T08:52:54.489Z,6.40
2023-02-26T08:55:24.869Z,6.50
2023-02-26T08:57:53.420Z,6.30
2023-02-26T09:00:22.659Z,6.30
2023-02-26T09:02:51.313Z,6.60
2023-02-26T09:05:20.829Z,7.40
2023-02-26T09:07:49.635Z,7.70
2023-02-26T09:10:18.567Z,7.90
2023-02-26T09:12:48.999Z,8.30
2023-02-26T09:15:18.154Z,8.90
2023-02-26T09:17:46.872Z,9.20
2023-02-26T09:20:16.686Z,9.50
2023-02-26T09:22:45.697Z,9.60
2023-02-26T09:25:15.384Z,9.60
2023-02-26T09:27:43.934Z,9.80
2023-02-26T09:30:15.464Z,9.80
2023-02-26T09:32:44.054Z,9.90
2023-02-26T09:35:12.913Z,9.90
2023-02-26T09:37:41.423Z,10.10
2023-02-26T09:40:13.081Z,9.90
2023-02-26T09:43:07.761Z,9.90
2023-02-26T09:45:41.157Z,10.20
2023-02-26T09:48:16.250Z,10.50
2023-02-26T09:50:49.800Z,10.50
2023-02-26T09:53:21.801Z,10.50
2023-02-26T09:55:51.541Z,10.60
2023-02-26T09:58:24.444Z,10.60
2023-02-26T10:00:58.228Z,10.50
2023-02-26T10:03:33.953Z,10.40
2023-02-26T10:06:22.845Z,10.50
2023-02-26T10:09:19.187Z,10.80
2023-02-26T10:11:53.348Z,11.70
2023-02-26T10:14:28.157Z,11.90
2023-02-26T10:17:01.099Z,12.10
2023-02-26T10:19:32.147Z,12.30
2023-02-26T10:22:17.928Z,12.60
2023-02-26T10:24:50.233Z,13.20
2023-02-26T10:27:25.214Z,14.10
2023-02-26T10:30:00.757Z,14.60
2023-02-26T10:32:37.846Z,14.90
2023-02-26T10:35:11.000Z,15.20
2023-02-26T10:37:44.403Z,15.80
2023-02-26T10:40:15.182Z,17.00
2023-02-26T10:42:48.849Z,18.40
2023-02-26T10:45:36.613Z,19.40
2023-02-26T10:48:18.621Z,20.00
2023-02-26T10:50:51.650Z,21.00
2023-02-26T10:53:20.588Z,21.00
2023-02-26T10:55:52.597Z,21.00
2023-02-26T10:58:24.299Z,21.50
2023-02-26T11:00:56.440Z,21.90
2023-02-26T11:03:33.211Z,22.20
2023-02-26T11:06:03.879Z,22.50
2023-02-26T11:08:35.771Z,22.00
2023-02-26T11:11:06.013Z,21.20
2023-02-26T11:13:36.163Z,20.70
2023-02-26T11:16:07.167Z,20.30
2023-02-26T11:18:42.639Z,18.80
2023-02-26T11:21:20.610Z,18.10
2023-02-26T11:23:50.955Z,17.10
2023-02-26T11:26:21.046Z,17.30
2023-02-26T11:28:51.937Z,17.40
2023-02-26T11:31:22.885Z,16.90
2023-02-26T11:33:55.913Z,15.50
2023-02-26T11:36:25.990Z,14.10
2023-02-26T11:38:57.905Z,14.90
2023-02-26T11:41:29.216Z,16.30
2023-02-26T11:44:02.503Z,17.90
2023-02-26T11:46:31.282Z,19.30
2023-02-26T11:49:03.011Z,19.70
2023-02-26T11:51:32.855Z,18.70
2023-02-26T11:54:03.003Z,17.60
2023-02-26T11:56:34.339Z,16.20
2023-02-26T11:59:08.738Z,15.00
2023-02-26T12:01:38.472Z,14.00
2023-02-26T12:04:11.583Z,13.60
2023-02-26T12:06:40.896Z,13.40
2023-02-26T12:09:13.332Z,14.00
2023-02-26T12:12:01.502Z,15.00
2023-02-26T12:14:50.313Z,14.80
2023-02-26T12:17:36.990Z,14.00
2023-02-26T12:20:19.447Z,13.30
2023-02-26T12:22:55.295Z,14.10
2023-02-26T12:25:52.102Z,16.60
2023-02-26T12:28:36.250Z,16.60
2023-02-26T12:31:30.166Z,16.40
2023-02-26T12:34:16.540Z,15.80
2023-02-26T12:36:57.325Z,14.80
2023-02-26T12:39:40.020Z,13.80
2023-02-26T12:42:20.157Z,13.30
2023-02-26T12:45:07.435Z,14.20
2023-02-26T12:47:49.333Z,14.80
2023-02-26T12:50:33.592Z,15.00
2023-02-26T12:53:38.961Z,15.50
2023-02-26T12:56:35.778Z,16.00
2023-02-26T12:59:37.278Z,15.20
2023-02-26T13:02:31.442Z,14.30
2023-02-26T13:05:13.698Z,13.60
2023-02-26T13:07:54.605Z,13.70
2023-02-26T13:10:32.999Z,13.70
2023-02-26T13:13:16.808Z,14.00
2023-02-26T13:16:05.093Z,14.70
2023-02-26T13:18:45.063Z,15.10
2023-02-26T13:21:19.304Z,14.10
2023-02-26T13:23:52.185Z,13.00
2023-02-26T13:26:23.462Z,12.60
2023-02-26T13:28:57.551Z,13.90
2023-02-26T13:31:32.014Z,15.40
2023-02-26T13:34:04.133Z,16.40
2023-02-26T13:36:35.222Z,17.60
2023-02-26T13:39:21.705Z,18.40
2023-02-26T13:42:00.394Z,18.20
2023-02-26T13:44:37.354Z,17.60
2023-02-26T13:47:25.765Z,16.50
2023-02-26T13:50:04.521Z,15.80
2023-02-26T13:52:36.179Z,16.40
2023-02-26T13:55:06.376Z,17.30
2023-02-26T13:57:53.112Z,18.20
2023-02-26T14:00:28.620Z,18.70
2023-02-26T14:02:58.611Z,18.90
2023-02-26T14:05:55.614Z,18.90
2023-02-26T14:08:52.553Z,18.30
2023-02-26T14:11:46.814Z,17.90
2023-02-26T14:14:38.778Z,18.30
2023-02-26T14:17:37.808Z,18.30
2023-02-26T14:20:25.688Z,17.00
2023-02-26T14:23:12.093Z,15.60
2023-02-26T14:25:43.096Z,14.60
2023-02-26T14:28:41.741Z,14.10
2023-02-26T14:31:18.139Z,14.00
2023-02-26T14:33:49.494Z,14.20
2023-02-26T14:36:27.154Z,13.80
2023-02-26T14:38:59.387Z,13.10
2023-02-26T14:41:32.885Z,12.20
2023-02-26T14:44:06.679Z,11.90
2023-02-26T14:46:37.506Z,12.00
2023-02-26T14:49:07.780Z,11.60
2023-02-26T14:51:45.058Z,11.10
2023-02-26T14:54:27.977Z,11.00
2023-02-26T14:57:04.119Z,11.00
2023-02-26T14:59:59.247Z,10.90
2023-02-26T15:02:33.527Z,10.70
2023-02-26T15:05:29.478Z,10.50
2023-02-26T15:08:19.788Z,10.20
2023-02-26T15:11:15.278Z,9.90
2023-02-26T15:14:03.207Z,9.50
2023-02-26T15:16:43.211Z,9.20
2023-02-26T15:19:29.142Z,9.20
2023-02-26T15:22:13.839Z,9.20
2023-02-26T15:24:43.077Z,9.30
2023-02-26T15:27:17.606Z,9.20
2023-02-26T15:29:48.150Z,9.10
2023-02-26T15:32:23.597Z,8.80
2023-02-26T15:35:00.986Z,8.60
2023-02-26T15:37:33.725Z,8.20
2023-02-26T15:40:05.171Z,8.10
2023-02-26T15:42:38.894Z,8.00
2023-02-26T15:45:14.080Z,8.00
2023-02-26T15:47:42.911Z,8.00
2023-02-26T15:50:17.636Z,8.10
2023-02-26T15:52:50.353Z,8.20
2023-02-26T15:55:19.364Z,8.20
2023-02-26T15:57:48.999Z,8.30
2023-02-26T16:00:24.868Z,8.30
2023-02-26T16:02:57.338Z,8.30
2023-02-26T16:05:28.991Z,8.20
2023-02-26T16:07:57.899Z,8.20
2023-02-26T16:10:33.702Z,8.30
2023-02-26T16:13:03.481Z,8.10
2023-02-26T16:15:35.238Z,7.80
2023-02-26T16:18:07.173Z,7.60
2023-02-26T16:20:40.675Z,7.40
2023-02-26T16:23:13.891Z,7.20
2023-02-26T16:25:49.819Z,7.10
2023-02-26T16:28:21.917Z,7.00
2023-02-26T16:30:54.597Z,7.00
2023-02-26T16:33:24.984Z,7.00
2023-02-26T16:35:59.154Z,7.00
2023-02-26T16:38:29.479Z,6.90
2023-02-26T16:41:00.905Z,6.70
2023-02-26T16:43:38.414Z,6.50
2023-02-26T16:46:07.739Z,6.40
2023-02-26T16:48:44.109Z,6.20
2023-02-26T16:51:16.285Z,6.10
2023-02-26T16:53:49.032Z,6.00
2023-02-26T16:56:20.554Z,5.90
2023-02-26T16:58:50.870Z,5.70
2023-02-26T17:01:22.066Z,5.60
2023-02-26T17:03:58.969Z,5.50
2023-02-26T17:06:31.538Z,5.50
2023-02-26T17:09:01.943Z,5.40
2023-02-26T17:11:33.353Z,5.40
2023-02-26T17:14:14.178Z,5.30
2023-02-26T17:16:43.296Z,5.20
2023-02-26T17:19:12.034Z,5.10
2023-02-26T17:21:46.868Z,5.00
2023-02-26T17:24:18.894Z,5.00
2023-02-26T17:26:49.239Z,4.90
2023-02-26T17:29:23.192Z,4.80
2023-02-26T17:31:53.182Z,4.70
2023-02-26T17:34:23.252Z,4.60
2023-02-26T17:36:53.881Z,4.60
2023-02-26T17:39:22.346Z,4.50
2023-02-26T17:41:51.090Z,4.40
2023-02-26T17:44:20.271Z,4.40
2023-02-26T17:46:49.212Z,4.30
2023-02-26T17:49:17.688Z,4.40
2023-02-26T17:51:46.866Z,4.40
2023-02-26T17:54:16.910Z,4.40
2023-02-26T17:56:45.853Z,4.30
2023-02-26T17:59:16.292Z,4.30
2023-02-26T18:01:44.836Z,4.30
2023-02-26T18:04:13.474Z,4.20
2023-02-26T18:06:42.067Z,4.10
2023-02-26T18:09:13.813Z,4.10
2023-02-26T18:11:44.380Z,4.00
2023-02-26T18:14:12.979Z,3.90
2023-02-26T18:16:45.754Z,3.80
2023-02-26T18:19:14.757Z,3.80
2023-02-26T18:21:43.298Z,3.80
2023-02-26T18:24:12.020Z,3.80
2023-02-26T18:26:40.619Z,3.70
2023-02-26T18:29:12.945Z,3.70
2023-02-26T18:31:42.824Z,3.60
2023-02-26T18:34:13.357Z,3.60
2023-02-26T18:36:42.102Z,3.60
2023-02-26T18:39:15.415Z,3.50
2023-02-26T18:41:44.446Z,3.50
2023-02-26T18:44:14.509Z,3.50
2023-02-26T18:46:45.028Z,3.40
2023-02-26T18:49:18.337Z,3.30
2023-02-26T18:51:47.493Z,3.20
2023-02-26T18:54:16.235Z,3.10
2023-02-26T18:56:44.833Z,3.10
2023-02-26T18:59:14.993Z,3.20
2023-02-26T19:01:43.891Z,3.10
2023-02-26T19:04:12.532Z,3.10
2023-02-26T19:06:41.181Z,3.00
2023-02-26T19:09:09.856Z,2.90
2023-02-26T19:11:39.501Z,3.00
2023-02-26T19:14:08.448Z,3.00
2023-02-26T19:16:39.449Z,3.00
2023-02-26T19:19:11.799Z,3.10
2023-02-26T19:21:41.212Z,3.00
2023-02-26T19:24:11.341Z,3.00
2023-02-26T19:26:39.990Z,2.90
2023-02-26T19:29:16.083Z,2.90
2023-02-26T19:31:47.269Z,2.90
2023-02-26T19:34:16.382Z,2.80
2023-02-26T19:36:48.347Z,2.70
2023-02-26T19:39:18.834Z,2.70
2023-02-26T19:41:49.204Z,2.70
2023-02-26T19:44:18.429Z,2.60
2023-02-26T19:46:49.238Z,2.60
2023-02-26T19:49:18.139Z,2.50
2023-02-26T19:51:47.268Z,2.50
2023-02-26T19:54:16.000Z,2.60
2023-02-26T19:56:45.236Z,2.50
2023-02-26T19:59:14.671Z,2.50
2023-02-26T20:01:45.273Z,2.40
2023-02-26T20:04:15.662Z,2.30
2023-02-26T20:06:46.123Z,2.30
2023-02-26T20:09:14.778Z,2.30
2023-02-26T20:11:43.698Z,2.20
2023-02-26T20:14:12.615Z,2.20
2023-02-26T20:16:41.444Z,2.20
2023-02-26T20:19:10.027Z,2.10
2023-02-26T20:21:40.268Z,2.10
2023-02-26T20:24:09.564Z,2.10
2023-02-26T20:26:38.598Z,2.20
2023-02-26T20:29:07.595Z,2.10
2023-02-26T20:31:36.576Z,2.10
2023-02-26T20:34:05.370Z,2.10
2023-02-26T20:36:35.591Z,2.10
2023-02-26T20:39:07.166Z,2.10
2023-02-26T20:41:35.818Z,2.00
2023-02-26T20:44:04.421Z,2.00
2023-02-26T20:46:36.402Z,2.10
2023-02-26T20:49:05.086Z,2.00
2023-02-26T20:51:33.882Z,1.80
2023-02-26T20:54:02.431Z,1.50
2023-02-26T20:56:33.138Z,1.20
2023-02-26T20:59:02.049Z,1.00
2023-02-26T21:01:35.942Z,1.10
2023-02-26T21:04:07.279Z,1.10
2023-02-26T21:06:36.537Z,1.10
2023-02-26T21:09:06.638Z,1.10
2023-02-26T21:11:37.152Z,1.00
2023-02-26T21:14:07.992Z,1.10
2023-02-26T21:16:37.192Z,1.10
2023-02-26T21:19:05.902Z,1.10
2023-02-26T21:21:34.934Z,1.20
2023-02-26T21:24:03.622Z,1.20
2023-02-26T21:26:34.272Z,1.10
2023-02-26T21:29:05.477Z,1.10
2023-02-26T21:31:34.145Z,1.10
2023-02-26T21:34:23.539Z,1.10
2023-02-26T21:36:51.510Z,1.10
2023-02-26T21:39:20.122Z,1.10
2023-02-26T21:41:49.072Z,1.10
2023-02-26T21:44:19.081Z,1.20
2023-02-26T21:46:47.673Z,1.10
2023-02-26T21:49:16.303Z,1.10
2023-02-26T21:51:44.810Z,1.10
2023-02-26T21:54:13.369Z,1.10
2023-02-26T21:56:41.877Z,1.10
2023-02-26T21:59:10.606Z,1.20
2023-02-26T22:01:41.676Z,1.10
2023-02-26T22:04:10.277Z,1.10
2023-02-26T22:06:38.965Z,1.10
2023-02-26T22:09:07.500Z,1.00
2023-02-26T22:11:36.176Z,1.00
2023-02-26T22:14:04.727Z,0.90
2023-02-26T22:16:33.286Z,0.80
2023-02-26T22:19:03.341Z,0.70
2023-02-26T22:21:31.820Z,0.80
2023-02-26T22:24:02.133Z,0.80
2023-02-26T22:26:31.747Z,0.80
2023-02-26T22:29:00.903Z,0.90
2023-02-26T22:31:30.034Z,0.80
2023-02-26T22:33:58.955Z,0.90
2023-02-26T22:36:30.235Z,0.90
2023-02-26T22:38:58.867Z,0.90
2023-02-26T22:41:27.423Z,0.80
2023-02-26T22:43:55.892Z,0.70
2023-02-26T22:46:26.099Z,0.50
2023-02-26T22:48:54.617Z,0.40
2023-02-26T22:51:23.152Z,0.50
2023-02-26T22:53:53.272Z,0.50
2023-02-26T22:56:21.753Z,0.50
2023-02-26T22:58:53.093Z,0.40
2023-02-26T23:01:22.072Z,0.40
2023-02-26T23:03:50.672Z,0.40
2023-02-26T23:06:19.315Z,0.50
2023-02-26T23:08:48.266Z,0.50
2023-02-26T23:11:18.775Z,0.50
2023-02-26T23:13:47.445Z,0.50
2023-02-26T23:16:16.364Z,0.60
2023-02-26T23:18:48.177Z,0.60
2023-02-26T23:21:16.802Z,0.60
2023-02-26T23:23:46.149Z,0.70
2023-02-26T23:26:14.647Z,0.80
2023-02-26T23:28:44.788Z,0.80
2023-02-26T23:31:13.453Z,0.80
2023-02-26T23:33:42.042Z,0.80
2023-02-26T23:36:11.063Z,0.80
2023-02-26T23:38:39.785Z,0.70
2023-02-26T23:41:08.392Z,0.70
2023-02-26T23:43:37.213Z,0.60
2023-02-26T23:46:07.388Z,0.60
2023-02-26T23:48:35.960Z,0.60
2023-02-26T23:51:04.631Z,0.70
2023-02-26T23:53:33.469Z,0.70
2023-02-26T23:56:02.581Z,0.60
2023-02-26T23:58:31.710Z,0.50
